createdAt,value
2023-04-11T00:00:43.190Z,14.40
2023-04-11T00:03:12.640Z,12.60
2023-04-11T00:05:41.257Z,12.70
2023-04-11T00:08:10.171Z,12.70
2023-04-11T00:10:43.172Z,12.90
2023-04-11T00:13:12.365Z,14.10
2023-04-11T00:15:41.870Z,13.90
2023-04-11T00:18:12.683Z,12.90
2023-04-11T00:20:40.834Z,12.70
2023-04-11T00:23:09.137Z,12.60
2023-04-11T00:25:37.525Z,12.50
2023-04-11T00:28:05.907Z,12.30
2023-04-11T00:30:34.262Z,13.10
2023-04-11T00:33:04.154Z,13.00
2023-04-11T00:35:35.237Z,13.20
2023-04-11T00:38:04.074Z,13.00
2023-04-11T00:40:32.830Z,13.70
2023-04-11T00:43:20.923Z,13.30
2023-04-11T00:45:49.058Z,13.50
2023-04-11T00:48:17.292Z,13.60
2023-04-11T00:50:47.635Z,13.30
2023-04-11T00:53:17.755Z,13.90
2023-04-11T00:55:45.927Z,13.50
2023-04-11T00:58:16.902Z,11.40
2023-04-11T01:00:45.075Z,12.40
2023-04-11T01:03:14.637Z,12.90
2023-04-11T01:05:43.276Z,12.40
2023-04-11T01:08:12.141Z,13.40
2023-04-11T01:10:41.702Z,12.90
2023-04-11T01:13:09.792Z,13.00
2023-04-11T01:15:48.635Z,13.30
2023-04-11T01:18:18.872Z,13.90
2023-04-11T01:20:47.235Z,14.30
2023-04-11T01:23:26.262Z,13.80
2023-04-11T01:25:54.416Z,13.30
2023-04-11T01:28:23.338Z,12.60
2023-04-11T01:30:52.351Z,12.80
2023-04-11T01:33:21.423Z,14.10
2023-04-11T01:35:49.865Z,14.30
2023-04-11T01:38:23.317Z,13.70
2023-04-11T01:40:52.448Z,13.80
2023-04-11T01:43:21.091Z,13.70
2023-04-11T01:45:52.322Z,14.10
2023-04-11T01:48:20.907Z,14.40
2023-04-11T01:50:51.129Z,14.50
2023-04-11T01:53:19.508Z,15.40
2023-04-11T01:55:47.648Z,14.30
2023-04-11T01:58:16.576Z,13.20
2023-04-11T02:00:45.059Z,14.60
2023-04-11T02:03:13.985Z,14.00
2023-04-11T02:05:43.493Z,15.20
2023-04-11T02:08:28.533Z,6.80
2023-04-11T02:10:57.414Z,14.70
2023-04-11T02:13:25.898Z,15.20
2023-04-11T02:15:54.251Z,14.00
2023-04-11T02:18:24.495Z,15.90
2023-04-11T02:20:53.353Z,14.20
2023-04-11T02:23:24.309Z,14.50
2023-04-11T02:25:52.909Z,13.80
2023-04-11T02:28:21.395Z,13.20
2023-04-11T02:30:51.387Z,13.70
2023-04-11T02:33:20.411Z,14.40
2023-04-11T02:35:48.600Z,14.30
2023-04-11T02:38:17.876Z,15.10
2023-04-11T02:40:47.490Z,15.00
2023-04-11T02:43:19.042Z,15.60
2023-04-11T02:45:47.426Z,14.80
2023-04-11T02:48:16.419Z,15.40
2023-04-11T02:50:49.610Z,13.50
2023-04-11T02:53:18.906Z,16.70
2023-04-11T02:55:49.607Z,15.50
2023-04-11T02:58:20.246Z,8.00
2023-04-11T03:00:49.586Z,13.60
2023-04-11T03:03:26.549Z,13.50
2023-04-11T03:05:57.199Z,14.80
2023-04-11T03:08:26.056Z,14.80
2023-04-11T03:10:57.126Z,15.10
2023-04-11T03:13:26.640Z,14.00
2023-04-11T03:15:55.214Z,14.90
2023-04-11T03:18:27.067Z,14.60
2023-04-11T03:20:56.298Z,14.10
2023-04-11T03:23:27.870Z,15.10
2023-04-11T03:25:56.724Z,15.20
2023-04-11T03:28:25.300Z,15.90
2023-04-11T03:30:54.622Z,13.90
2023-04-11T03:33:24.213Z,13.30
2023-04-11T03:35:52.540Z,13.70
2023-04-11T03:38:21.336Z,14.30
2023-04-11T03:40:49.651Z,13.60
2023-04-11T03:43:20.599Z,14.50
2023-04-11T03:45:49.061Z,14.70
2023-04-11T03:48:26.607Z,14.00
2023-04-11T03:50:59.213Z,13.40
2023-04-11T03:53:37.968Z,13.60
2023-04-11T03:56:19.351Z,14.00
2023-04-11T03:58:47.645Z,13.70
2023-04-11T04:01:17.130Z,14.00
2023-04-11T04:03:47.379Z,14.40
2023-04-11T04:06:16.148Z,13.30
2023-04-11T04:08:44.838Z,15.00
2023-04-11T04:11:13.723Z,13.00
2023-04-11T04:13:41.995Z,14.10
2023-04-11T04:16:13.090Z,14.80
2023-04-11T04:18:43.146Z,13.70
2023-04-11T04:21:12.254Z,14.40
2023-04-11T04:23:47.542Z,14.40
2023-04-11T04:26:39.439Z,13.90
2023-04-11T04:29:23.930Z,6.40
2023-04-11T04:31:57.151Z,14.80
2023-04-11T04:34:33.339Z,14.50
2023-04-11T04:37:02.114Z,14.50
2023-04-11T04:39:42.186Z,13.70
2023-04-11T04:42:11.278Z,14.30
2023-04-11T04:45:01.078Z,13.80
2023-04-11T04:47:33.235Z,13.50
2023-04-11T04:50:01.495Z,14.10
2023-04-11T04:52:30.799Z,12.90
2023-04-11T04:55:00.193Z,13.90
2023-04-11T04:57:29.315Z,13.80
2023-04-11T04:59:57.684Z,12.80
2023-04-11T05:02:27.106Z,13.30
2023-04-11T05:04:56.590Z,13.40
2023-04-11T05:07:26.627Z,13.00
2023-04-11T05:10:00.827Z,5.50
2023-04-11T05:12:31.044Z,12.60
2023-04-11T05:15:04.545Z,12.30
2023-04-11T05:17:35.065Z,12.10
2023-04-11T05:20:06.535Z,13.70
2023-04-11T05:22:34.880Z,12.70
2023-04-11T05:25:06.003Z,11.90
2023-04-11T05:27:34.941Z,11.90
2023-04-11T05:30:03.736Z,12.20
2023-04-11T05:32:38.538Z,6.20
2023-04-11T05:35:07.943Z,12.30
2023-04-11T05:37:58.354Z,12.00
2023-04-11T05:40:26.915Z,12.50
2023-04-11T05:42:54.895Z,10.90
2023-04-11T05:45:24.519Z,11.80
2023-04-11T05:47:52.830Z,10.10
2023-04-11T05:50:28.653Z,10.40
2023-04-11T05:52:57.436Z,11.30
2023-04-11T05:55:25.824Z,11.40
2023-04-11T05:57:59.623Z,11.30
2023-04-11T06:00:31.184Z,11.10
2023-04-11T06:03:09.859Z,10.90
2023-04-11T06:05:40.736Z,11.30
2023-04-11T06:08:12.136Z,11.30
2023-04-11T06:10:40.311Z,10.70
2023-04-11T06:13:09.249Z,11.30
2023-04-11T06:15:38.271Z,10.20
2023-04-11T06:18:06.410Z,11.20
2023-04-11T06:20:36.944Z,10.10
2023-04-11T06:23:07.987Z,10.60
2023-04-11T06:25:36.283Z,10.00
2023-04-11T06:28:04.543Z,10.70
2023-04-11T06:30:33.327Z,10.50
2023-04-11T06:33:01.856Z,9.70
2023-04-11T06:35:30.301Z,9.70
2023-04-11T06:37:58.686Z,9.40
2023-04-11T06:40:29.952Z,9.80
2023-04-11T06:43:00.364Z,9.80
2023-04-11T06:45:28.689Z,8.70
2023-04-11T06:47:56.813Z,9.30
2023-04-11T06:50:25.078Z,8.30
2023-04-11T06:52:55.831Z,8.90
2023-04-11T06:55:24.065Z,8.60
2023-04-11T06:57:52.421Z,8.40
2023-04-11T07:00:21.468Z,7.90
2023-04-11T07:02:51.591Z,8.30
2023-04-11T07:05:20.065Z,8.50
2023-04-11T07:07:49.975Z,8.70
2023-04-11T07:10:18.974Z,7.70
2023-04-11T07:12:47.113Z,7.70
2023-04-11T07:15:17.364Z,7.80
2023-04-11T07:17:50.263Z,7.70
2023-04-11T07:20:19.868Z,7.60
2023-04-11T07:22:48.559Z,7.80
2023-04-11T07:25:22.775Z,7.80
2023-04-11T07:27:51.691Z,7.30
2023-04-11T07:30:21.875Z,7.70
2023-04-11T07:32:51.741Z,7.60
2023-04-11T07:35:20.475Z,8.00
2023-04-11T07:37:49.468Z,7.20
2023-04-11T07:40:18.162Z,7.40
2023-04-11T07:42:46.942Z,7.60
2023-04-11T07:45:15.221Z,7.10
2023-04-11T07:47:44.393Z,6.50
2023-04-11T07:50:12.807Z,7.00
2023-04-11T07:52:41.379Z,7.80
2023-04-11T07:55:10.374Z,7.20
2023-04-11T07:57:38.498Z,7.10
2023-04-11T08:00:11.594Z,6.50
2023-04-11T08:02:44.368Z,7.10
2023-04-11T08:05:13.003Z,6.80
2023-04-11T08:07:48.654Z,6.90
2023-04-11T08:10:17.812Z,6.90
2023-04-11T08:12:45.979Z,7.00
2023-04-11T08:15:17.322Z,6.40
2023-04-11T08:17:46.844Z,7.00
2023-04-11T08:20:15.670Z,6.90
2023-04-11T08:22:47.127Z,7.10
2023-04-11T08:25:15.504Z,7.10
2023-04-11T08:27:44.188Z,6.50
2023-04-11T08:30:17.174Z,7.40
2023-04-11T08:32:46.741Z,7.20
2023-04-11T08:35:14.954Z,6.20
2023-04-11T08:37:44.638Z,5.90
2023-04-11T08:40:12.947Z,6.20
2023-04-11T08:42:42.046Z,6.50
2023-04-11T08:45:11.044Z,6.40
2023-04-11T08:47:39.196Z,5.60
2023-04-11T08:50:08.711Z,6.00
2023-04-11T08:52:37.811Z,6.40
2023-04-11T08:55:06.236Z,6.50
2023-04-11T08:57:35.109Z,5.70
2023-04-11T09:00:25.006Z,5.70
2023-04-11T09:14:16.085Z,4.60
2023-04-11T09:17:01.754Z,6.20
2023-04-11T09:19:31.932Z,6.20
2023-04-11T09:22:02.467Z,5.30
2023-04-11T09:24:32.046Z,5.40
2023-04-11T09:27:15.982Z,5.50
2023-04-11T09:29:48.250Z,5.30
2023-04-11T09:32:35.215Z,5.00
2023-04-11T09:35:25.727Z,5.50
2023-04-11T09:37:55.485Z,5.20
2023-04-11T09:40:25.959Z,5.00
2023-04-11T09:42:58.718Z,5.10
2023-04-11T09:45:27.745Z,5.30
2023-04-11T09:47:56.971Z,5.20
2023-04-11T09:50:26.037Z,5.40
2023-04-11T09:52:57.763Z,4.90
2023-04-11T09:55:27.720Z,5.50
2023-04-11T09:57:56.133Z,5.10
2023-04-11T10:00:29.478Z,5.10
2023-04-11T10:02:58.209Z,4.80
2023-04-11T10:05:27.759Z,4.90
2023-04-11T10:08:06.495Z,4.80
2023-04-11T10:10:36.209Z,5.90
2023-04-11T10:13:37.670Z,4.80
2023-04-11T10:16:09.355Z,5.10
2023-04-11T10:18:54.403Z,4.70
2023-04-11T10:21:32.943Z,4.80
2023-04-11T10:24:21.354Z,5.40
2023-04-11T10:26:57.964Z,4.50
2023-04-11T10:29:41.153Z,5.10
2023-04-11T10:32:13.096Z,4.30
2023-04-11T10:35:16.627Z,4.60
2023-04-11T10:37:44.692Z,4.80
2023-04-11T10:40:13.711Z,4.40
2023-04-11T10:42:44.878Z,5.50
2023-04-11T10:45:24.641Z,4.70
2023-04-11T10:47:58.889Z,4.90
2023-04-11T10:50:27.599Z,4.70
2023-04-11T10:52:57.298Z,4.50
2023-04-11T10:55:30.565Z,5.30
2023-04-11T10:58:09.459Z,5.80
2023-04-11T11:00:46.704Z,4.70
2023-04-11T11:03:24.310Z,4.30
2023-04-11T11:06:08.570Z,4.50
2023-04-11T11:08:38.182Z,4.40
2023-04-11T11:11:07.033Z,5.00
2023-04-11T11:13:42.384Z,4.90
2023-04-11T11:16:14.364Z,4.90
2023-04-11T11:18:53.184Z,5.10
2023-04-11T11:21:28.837Z,5.50
2023-04-11T11:26:41.576Z,4.70
2023-04-11T11:29:10.392Z,5.10
2023-04-11T11:31:42.715Z,5.30
2023-04-11T11:34:23.065Z,5.30
2023-04-11T11:36:53.579Z,5.20
2023-04-11T11:39:23.279Z,5.10
2023-04-11T11:41:52.308Z,4.70
2023-04-11T11:44:22.557Z,4.50
2023-04-11T11:47:09.544Z,4.70
2023-04-11T11:49:48.498Z,4.50
2023-04-11T11:52:36.727Z,4.80
2023-04-11T11:55:10.432Z,4.10
2023-04-11T11:57:49.356Z,4.40
2023-04-11T12:00:24.700Z,4.40
2023-04-11T12:02:56.441Z,4.00
2023-04-11T12:05:25.428Z,4.10
2023-04-11T12:07:55.052Z,3.90
2023-04-11T12:10:23.375Z,4.10
2023-04-11T12:12:53.112Z,4.40
2023-04-11T12:15:24.102Z,4.60
2023-04-11T12:17:52.785Z,4.80
2023-04-11T12:20:24.802Z,4.50
2023-04-11T12:22:54.847Z,4.40
2023-04-11T12:25:28.680Z,4.20
2023-04-11T12:27:57.345Z,4.40
2023-04-11T12:30:27.224Z,4.80
2023-04-11T12:33:01.035Z,4.70
2023-04-11T12:35:30.264Z,4.10
2023-04-11T12:38:08.074Z,4.30
2023-04-11T12:40:37.469Z,4.10
2023-04-11T12:43:06.054Z,4.30
2023-04-11T12:45:37.919Z,3.40
2023-04-11T12:48:08.187Z,3.50
2023-04-11T12:50:36.496Z,4.40
2023-04-11T12:53:04.790Z,3.90
2023-04-11T12:55:36.707Z,4.50
2023-04-11T12:58:09.650Z,3.90
2023-04-11T13:00:37.751Z,3.80
2023-04-11T13:03:16.411Z,4.10
2023-04-11T13:05:46.676Z,4.20
2023-04-11T13:08:15.560Z,3.90
2023-04-11T13:10:43.871Z,3.90
2023-04-11T13:15:46.728Z,3.90
2023-04-11T13:18:15.010Z,4.40
2023-04-11T13:20:46.178Z,4.30
2023-04-11T13:23:16.657Z,4.40
2023-04-11T13:25:48.878Z,3.60
2023-04-11T13:28:18.398Z,4.20
2023-04-11T13:30:46.942Z,3.70
2023-04-11T13:33:16.550Z,3.50
2023-04-11T13:35:45.436Z,4.30
2023-04-11T13:38:16.681Z,3.30
2023-04-11T13:40:45.709Z,3.50
2023-04-11T13:43:15.694Z,4.00
2023-04-11T13:45:44.002Z,4.10
2023-04-11T13:48:15.116Z,3.70
2023-04-11T13:50:43.402Z,4.10
2023-04-11T13:53:11.873Z,3.90
2023-04-11T13:55:40.258Z,4.40
2023-04-11T13:58:08.393Z,4.20
2023-04-11T14:00:39.169Z,4.50
2023-04-11T14:03:08.116Z,4.80
2023-04-11T14:05:36.950Z,4.00
2023-04-11T14:08:10.804Z,4.30
2023-04-11T14:10:39.132Z,4.40
2023-04-11T14:13:11.631Z,4.70
2023-04-11T14:15:41.073Z,4.80
2023-04-11T14:18:09.269Z,4.50
2023-04-11T14:20:38.689Z,4.50
2023-04-11T14:23:07.686Z,4.70
2023-04-11T14:25:36.225Z,5.00
2023-04-11T14:28:05.203Z,4.80
2023-04-11T14:30:34.165Z,5.00
2023-04-11T14:33:03.106Z,5.20
2023-04-11T14:35:31.886Z,5.30
2023-04-11T14:38:01.250Z,5.60
2023-04-11T14:40:29.617Z,5.60
2023-04-11T14:42:58.796Z,6.20
2023-04-11T14:45:29.862Z,5.50
2023-04-11T14:47:58.233Z,5.80
2023-04-11T14:50:27.158Z,5.70
2023-04-11T14:52:57.379Z,5.20
2023-04-11T14:55:26.244Z,6.40
2023-04-11T14:58:00.873Z,6.30
2023-04-11T15:00:29.527Z,5.80
2023-04-11T15:02:58.181Z,6.70
2023-04-11T15:05:27.014Z,7.20
2023-04-11T15:07:57.137Z,6.70
2023-04-11T15:10:25.424Z,6.60
2023-04-11T15:12:54.047Z,6.00
2023-04-11T15:15:23.308Z,6.40
2023-04-11T15:18:25.269Z,6.00
2023-04-11T15:20:54.099Z,5.80
2023-04-11T15:23:29.105Z,5.80
2023-04-11T15:26:01.577Z,6.30
2023-04-11T15:28:38.048Z,6.70
2023-04-11T15:31:08.038Z,7.40
2023-04-11T15:33:36.912Z,7.10
2023-04-11T15:36:08.146Z,6.40
2023-04-11T15:38:37.041Z,6.10
2023-04-11T15:41:07.610Z,7.00
2023-04-11T15:43:37.613Z,6.50
2023-04-11T15:46:10.347Z,6.40
2023-04-11T15:48:41.232Z,6.80
2023-04-11T15:51:11.105Z,7.20
2023-04-11T15:53:40.291Z,7.00
2023-04-11T15:56:08.982Z,6.80
2023-04-11T15:58:37.942Z,6.50
2023-04-11T16:01:23.095Z,6.50
2023-04-11T16:03:58.149Z,6.70
2023-04-11T16:06:27.663Z,6.10
2023-04-11T16:08:56.236Z,6.60
2023-04-11T16:11:29.122Z,6.70
2023-04-11T16:13:58.212Z,6.20
2023-04-11T16:16:35.078Z,5.80
2023-04-11T16:19:04.128Z,5.80
2023-04-11T16:21:32.598Z,5.60
2023-04-11T16:24:01.681Z,5.70
2023-04-11T16:26:30.386Z,5.70
2023-04-11T16:28:58.810Z,5.80
2023-04-11T16:31:27.892Z,5.70
2023-04-11T16:33:56.836Z,6.10
2023-04-11T16:36:27.312Z,6.40
2023-04-11T16:38:55.512Z,5.80
2023-04-11T16:41:24.013Z,5.80
2023-04-11T16:43:53.758Z,6.50
2023-04-11T16:46:22.480Z,6.20
2023-04-11T16:48:54.782Z,6.80
2023-04-11T16:51:23.295Z,6.30
2023-04-11T16:53:53.365Z,5.90
2023-04-11T16:56:21.867Z,6.60
2023-04-11T16:58:50.230Z,6.30
2023-04-11T17:01:19.386Z,6.30
2023-04-11T17:03:52.336Z,6.60
2023-04-11T17:06:20.753Z,6.70
2023-04-11T17:08:49.111Z,6.40
2023-04-11T17:11:17.568Z,6.60
2023-04-11T17:13:46.460Z,6.80
2023-04-11T17:16:17.089Z,6.40
2023-04-11T17:18:45.471Z,6.20
2023-04-11T17:21:18.639Z,6.20
2023-04-11T17:23:47.228Z,5.80
2023-04-11T17:26:16.965Z,6.60
2023-04-11T17:28:47.147Z,6.20
2023-04-11T17:31:16.363Z,7.00
2023-04-11T17:33:44.959Z,6.50
2023-04-11T17:36:13.407Z,6.40
2023-04-11T17:38:43.734Z,5.80
2023-04-11T17:41:14.856Z,7.20
2023-04-11T17:43:44.351Z,7.30
2023-04-11T17:46:13.836Z,7.30
2023-04-11T17:48:42.813Z,7.20
2023-04-11T17:51:10.986Z,7.20
2023-04-11T17:53:44.341Z,7.30
2023-04-11T17:56:14.607Z,7.40
2023-04-11T17:58:45.047Z,6.80
2023-04-11T18:01:14.213Z,7.50
2023-04-11T18:03:44.182Z,6.90
2023-04-11T18:06:12.605Z,7.50
2023-04-11T18:11:14.415Z,6.60
2023-04-11T18:13:43.910Z,7.00
2023-04-11T18:16:15.780Z,7.50
2023-04-11T18:18:44.255Z,6.70
2023-04-11T18:21:12.890Z,6.10
2023-04-11T18:23:42.556Z,6.70
2023-04-11T18:26:11.362Z,6.80
2023-04-11T18:28:40.776Z,6.20
2023-04-11T18:31:10.010Z,6.90
2023-04-11T18:33:42.870Z,7.20
2023-04-11T18:36:18.156Z,6.90
2023-04-11T18:38:47.825Z,7.30
2023-04-11T18:41:18.157Z,6.50
2023-04-11T18:43:47.642Z,7.50
2023-04-11T18:46:16.421Z,7.30
2023-04-11T18:48:45.425Z,7.20
2023-04-11T18:51:13.872Z,7.30
2023-04-11T18:53:42.149Z,7.30
2023-04-11T18:56:11.857Z,7.40
2023-04-11T18:58:45.523Z,7.30
2023-04-11T19:01:17.280Z,6.50
2023-04-11T19:03:47.893Z,7.80
2023-04-11T19:06:17.255Z,7.80
2023-04-11T19:08:45.633Z,6.80
2023-04-11T19:11:13.902Z,6.80
2023-04-11T19:13:42.129Z,7.30
2023-04-11T19:16:12.266Z,8.10
2023-04-11T19:18:41.294Z,7.30
2023-04-11T19:21:09.672Z,6.60
2023-04-11T19:23:39.792Z,6.40
2023-04-11T19:26:08.775Z,6.80
2023-04-11T19:28:37.883Z,7.20
2023-04-11T19:31:08.526Z,6.20
2023-04-11T19:33:39.093Z,6.10
2023-04-11T19:36:07.764Z,6.50
2023-04-11T19:38:36.315Z,6.10
2023-04-11T19:41:12.468Z,6.50
2023-04-11T19:43:43.005Z,5.80
2023-04-11T19:46:12.612Z,6.50
2023-04-11T19:48:41.397Z,5.60
2023-04-11T19:51:11.582Z,5.60
2023-04-11T19:53:40.196Z,5.20
2023-04-11T19:56:12.386Z,6.00
2023-04-11T19:58:42.924Z,5.30
2023-04-11T20:01:11.408Z,6.10
2023-04-11T20:03:41.875Z,5.60
2023-04-11T20:06:12.695Z,5.80
2023-04-11T20:08:41.051Z,5.10
2023-04-11T20:11:16.599Z,6.00
2023-04-11T20:13:44.759Z,5.90
2023-04-11T20:16:13.272Z,5.90
2023-04-11T20:18:44.252Z,5.90
2023-04-11T20:21:12.614Z,5.90
2023-04-11T20:23:42.295Z,6.00
2023-04-11T20:26:11.057Z,5.30
2023-04-11T20:28:39.655Z,5.60
2023-04-11T20:31:07.888Z,5.60
2023-04-11T20:33:37.128Z,4.90
2023-04-11T20:36:07.840Z,4.70
2023-04-11T20:38:37.161Z,4.40
2023-04-11T20:41:06.434Z,5.10
2023-04-11T20:43:41.754Z,4.30
2023-04-11T20:46:09.924Z,5.40
2023-04-11T20:48:38.349Z,5.20
2023-04-11T20:51:08.631Z,5.10
2023-04-11T20:53:36.861Z,4.90
2023-04-11T20:56:06.102Z,5.50
2023-04-11T20:58:34.421Z,5.40
2023-04-11T21:01:03.167Z,5.00
2023-04-11T21:03:37.794Z,5.20
2023-04-11T21:06:07.589Z,4.80
2023-04-11T21:08:38.174Z,5.00
2023-04-11T21:11:07.479Z,4.10
2023-04-11T21:13:36.170Z,5.30
2023-04-11T21:16:04.884Z,5.30
2023-04-11T21:32:12.561Z,4.40
2023-04-11T21:34:41.539Z,4.40
2023-04-11T21:37:10.635Z,4.50
2023-04-11T21:39:38.769Z,4.40
2023-04-11T21:42:09.029Z,4.90
2023-04-11T21:44:37.756Z,5.00
2023-04-11T21:47:06.053Z,4.40
2023-04-11T21:49:34.324Z,4.60
2023-04-11T21:52:06.859Z,5.10
2023-04-11T21:54:36.802Z,4.40
2023-04-11T21:57:05.247Z,4.40
2023-04-11T21:59:35.164Z,4.40
2023-04-11T22:02:03.675Z,4.80
2023-04-11T22:04:39.056Z,4.90
2023-04-11T22:07:15.820Z,5.50
2023-04-11T22:09:47.218Z,4.60
2023-04-11T22:12:17.805Z,4.00
2023-04-11T22:14:52.846Z,4.30
2023-04-11T22:17:22.799Z,4.60
2023-04-11T22:19:50.967Z,4.30
2023-04-11T22:22:20.585Z,5.10
2023-04-11T22:24:51.004Z,5.20
2023-04-11T22:27:19.690Z,4.70
2023-04-11T22:29:49.405Z,4.70
2023-04-11T22:32:18.394Z,4.70
2023-04-11T22:34:46.773Z,5.20
2023-04-11T22:37:15.131Z,5.20
2023-04-11T22:39:43.655Z,5.00
2023-04-11T22:42:12.698Z,5.10
2023-04-11T22:44:41.007Z,5.20
2023-04-11T22:47:16.883Z,5.10
2023-04-11T22:49:45.997Z,5.10
2023-04-11T22:52:15.235Z,5.10
2023-04-11T22:54:45.993Z,5.40
2023-04-11T22:57:14.279Z,5.50
2023-04-11T22:59:42.611Z,5.10
2023-04-11T23:02:10.922Z,5.30
2023-04-11T23:04:39.094Z,5.10
2023-04-11T23:07:07.277Z,5.90
2023-04-11T23:09:35.767Z,5.70
2023-04-11T23:12:11.708Z,5.60
2023-04-11T23:14:42.748Z,6.10
2023-04-11T23:17:12.580Z,6.00
2023-04-11T23:19:42.583Z,5.90
2023-04-11T23:22:11.062Z,6.20
2023-04-11T23:24:40.273Z,6.10
2023-04-11T23:27:08.552Z,5.70
2023-04-11T23:29:39.276Z,5.80
2023-04-11T23:32:07.754Z,6.20
2023-04-11T23:34:38.540Z,5.70
2023-04-11T23:37:08.080Z,6.10
2023-04-11T23:39:36.681Z,5.90
2023-04-11T23:42:07.616Z,5.80
2023-04-11T23:44:36.021Z,6.10
2023-04-11T23:47:08.377Z,6.30
2023-04-11T23:49:37.346Z,6.10
2023-04-11T23:52:05.946Z,6.60
2023-04-11T23:54:36.884Z,6.10
2023-04-11T23:57:06.284Z,6.50
2023-04-11T23:59:35.182Z,6.60
